Time;durP1;ratioP1;P1;durP2;ratioP2;P2;SDS_P1;SDS_P2;PMS_P1;PMS_P2;Temp;Humidity;BMP_temperature;BMP_pressure;BME280_temperature;BME280_humidity;BME280_pressure;Samples;Min_cycle;Max_cycle;Signal;HPM_P1;HPM_P2
2024/01/13 00:01:01;;;;;;;1.20;1.00;;;;;;;;;;5052526;28;20080;-28
2024/01/13 00:03:29;;;;;;;1.08;0.75;;;;;;;;;;5053021;28;20052;-28
2024/01/13 00:05:56;;;;;;;0.80;0.80;;;;;;;;;;5052677;28;20484;-33
2024/01/13 00:08:24;;;;;;;1.00;0.90;;;;;;;;;;5052753;28;20099;-34
2024/01/13 00:10:51;;;;;;;1.42;0.98;;;;;;;;;;5053685;28;20048;-34
2024/01/13 00:13:18;;;;;;;1.00;0.90;;;;;;;;;;5052184;28;20061;-33
2024/01/13 00:15:45;;;;;;;1.02;0.90;;;;;;;;;;5052282;28;20495;-35
2024/01/13 00:18:13;;;;;;;1.48;0.88;;;;;;;;;;5052600;28;20107;-32
2024/01/13 00:20:42;;;;;;;1.48;0.90;;;;;;;;;;5052395;28;20053;-34
2024/01/13 00:23:09;;;;;;;1.67;1.00;;;;;;;;;;5052459;28;20052;-28
2024/01/13 00:25:36;;;;;;;1.10;0.90;;;;;;;;;;5052174;28;20105;-31
2024/01/13 00:28:03;;;;;;;1.92;1.10;;;;;;;;;;5056333;28;20090;-28
2024/01/13 00:30:30;;;;;;;1.25;0.85;;;;;;;;;;5072201;28;20098;-31
2024/01/13 00:32:58;;;;;;;1.27;0.82;;;;;;;;;;5072366;28;20464;-28
2024/01/13 00:35:25;;;;;;;1.90;1.08;;;;;;;;;;5072219;28;20452;-33
2024/01/13 00:37:53;;;;;;;1.48;0.88;;;19.00;44.10;;;;;;5071480;28;20048;-34
2024/01/13 00:40:20;;;;;;;0.93;0.85;;;;;;;;;;5071917;28;20056;-28
2024/01/13 00:42:47;;;;;;;1.48;1.08;;;;;;;;;;5072027;28;20505;-28
2024/01/13 00:45:14;;;;;;;2.13;1.10;;;;;;;;;;5061469;28;20095;-28
2024/01/13 00:47:42;;;;;;;1.67;1.10;;;;;;;;;;5053614;28;20041;-29
2024/01/13 00:50:10;;;;;;;3.60;1.20;;;;;;;;;;5072071;28;20098;-34
2024/01/13 00:52:37;;;;;;;1.83;1.30;;;;;;;;;;5071874;28;20052;-36
2024/01/13 00:55:06;;;;;;;3.85;1.73;;;18.70;44.30;;;;;;5071687;28;20052;-35
2024/01/13 00:57:33;;;;;;;4.53;1.70;;;;;;;;;;5071707;28;20470;-31
2024/01/13 01:00:00;;;;;;;5.05;2.15;;;18.80;72.10;;;;;;5072006;28;20435;-35
2024/01/13 01:02:27;;;;;;;4.30;1.38;;;;;;;;;;5070288;28;20052;-33
2024/01/13 01:04:54;;;;;;;2.53;1.35;;;;;;;;;;5071705;28;20473;-34
2024/01/13 01:07:21;;;;;;;4.07;1.67;;;;;;;;;;5071385;28;20583;-37
2024/01/13 01:09:48;;;;;;;5.28;1.90;;;18.80;74.20;;;;;;5071704;28;20049;-36
2024/01/13 01:12:16;;;;;;;3.88;1.67;;;18.70;44.60;;;;;;5071590;28;20079;-34
2024/01/13 01:14:43;;;;;;;2.95;1.30;;;;;;;;;;5071896;28;20052;-28
2024/01/13 01:17:10;;;;;;;1.85;1.20;;;18.30;74.10;;;;;;5069584;28;20051;-28
2024/01/13 01:19:37;;;;;;;2.30;1.30;;;;;;;;;;5071834;28;20064;-28
2024/01/13 01:22:05;;;;;;;1.75;1.20;;;;;;;;;;5071374;28;20045;-30
2024/01/13 01:24:32;;;;;;;2.20;1.30;;;;;;;;;;5052192;28;20476;-28
2024/01/13 01:26:59;;;;;;;6.70;2.42;;;;;;;;;;5055316;28;20045;-27
2024/01/13 01:29:28;;;;;;;1.27;0.90;;;;;;;;;;5055757;28;20106;-29
2024/01/13 01:31:55;;;;;;;2.10;1.13;;;;;;;;;;5055707;28;20099;-29
2024/01/13 01:34:22;;;;;;;1.23;0.90;;;;;;;;;;5056663;28;20053;-30
2024/01/13 01:36:49;;;;;;;2.25;0.90;;;;;;;;;;5063041;28;20496;-33
2024/01/13 01:39:16;;;;;;;1.00;0.90;;;;;;;;;;5075529;28;20056;-34
2024/01/13 01:41:44;;;;;;;1.45;1.00;;;;;;;;;;5075153;28;20052;-34
2024/01/13 01:44:11;;;;;;;2.50;1.00;;;;;;;;;;5075307;28;20101;-34
2024/01/13 01:46:39;;;;;;;1.45;1.00;;;;;;;;;;5075287;28;20106;-34
2024/01/13 01:49:06;;;;;;;1.33;0.90;;;;;;;;;;5075177;28;20697;-28
2024/01/13 01:51:33;;;;;;;1.25;1.00;;;;;;;;;;5069824;28;20127;-28
2024/01/13 01:54:00;;;;;;;1.52;0.98;;;;;;;;;;5075328;28;20044;-28
2024/01/13 01:56:28;;;;;;;1.10;0.90;;;18.30;44.80;;;;;;5075078;28;20049;-31
2024/01/13 01:58:55;;;;;;;1.17;0.90;;;;;;;;;;5075156;28;20122;-28
2024/01/13 02:01:22;;;;;;;1.42;1.00;;;;;;;;;;5074867;28;20049;-28
2024/01/13 02:03:51;;;;;;;1.15;0.90;;;;;;;;;;5075089;28;20056;-28
2024/01/13 02:06:18;;;;;;;0.80;0.80;;;;;;;;;;5073375;28;20041;-27
2024/01/13 02:08:46;;;;;;;1.25;0.88;;;;;;;;;;5074707;28;20048;-29
2024/01/13 02:11:13;;;;;;;2.00;1.02;;;;;;;;;;5074986;28;20109;-28
2024/01/13 02:13:40;;;;;;;1.15;0.88;;;;;;;;;;5074879;28;20429;-28
2024/01/13 02:16:08;;;;;;;0.82;0.82;;;;;;;;;;5074785;28;20056;-31
2024/01/13 02:18:35;;;;;;;1.20;0.90;;;;;;;;;;5074448;28;20098;-28
2024/01/13 02:21:04;;;;;;;0.85;0.70;;;;;;;;;;5074682;28;20539;-28
2024/01/13 02:23:32;;;;;;;1.10;0.90;;;18.40;44.70;;;;;;5072731;28;20470;-27
2024/01/13 02:26:00;;;;;;;1.55;1.00;;;;;;;;;;5072856;28;20058;-28
2024/01/13 02:28:27;;;;;;;1.30;0.90;;;;;;;;;;5074264;28;20260;-28
2024/01/13 02:30:54;;;;;;;2.22;0.90;;;;;;;;;;5074514;28;20102;-32
2024/01/13 02:33:21;;;;;;;1.52;0.90;;;;;;;;;;5074373;28;20048;-34
2024/01/13 02:35:48;;;;;;;1.85;1.10;;;;;;;;;;5073751;28;20099;-32
2024/01/13 02:38:15;;;;;;;1.20;0.90;;;;;;;;;;5073608;28;20098;-34
2024/01/13 02:40:44;;;;;;;0.77;0.70;;;;;;;;;;5063952;28;20103;-34
2024/01/13 02:43:11;;;;;;;2.47;0.73;;;;;;;;;;5054423;28;20057;-28
2024/01/13 02:45:38;;;;;;;1.10;0.80;;;;;;;;;;5054061;28;20164;-28
2024/01/13 02:48:06;;;;;;;1.42;0.70;;;;;;;;;;5058933;28;20036;-36
2024/01/13 02:50:33;;;;;;;2.35;0.90;;;;;;;;;;5074462;28;20475;-28
2024/01/13 02:53:01;;;;;;;1.80;0.88;;;;;;;;;;5074171;28;20497;-31
2024/01/13 02:55:28;;;;;;;1.08;0.70;;;;;;;;;;5073935;28;20048;-28
2024/01/13 02:57:56;;;;;;;0.80;0.77;;;;;;;;;;5071051;28;20048;-30
2024/01/13 03:00:23;;;;;;;0.70;0.70;;;;;;;;;;5073918;28;20055;-37
2024/01/13 03:02:51;;;;;;;0.70;0.52;;;;;;;;;;5074216;28;20181;-37
2024/01/13 03:05:18;;;;;;;1.85;1.00;;;;;;;;;;5073989;28;20060;-33
2024/01/13 03:07:45;;;;;;;1.33;0.90;;;;;;;;;;5073348;28;20493;-30
2024/01/13 03:10:12;;;;;;;1.48;0.90;;;;;;;;;;5073807;28;20053;-28
2024/01/13 03:12:39;;;;;;;1.70;0.88;;;;;;;;;;5072184;28;20048;-30
2024/01/13 03:15:10;;;;;;;2.50;1.20;;;;;;;;;;5064250;28;20106;-27
2024/01/13 03:17:37;;;;;;;0.80;0.70;;;;;;;;;;5072678;28;20814;-30
2024/01/13 03:20:05;;;;;;;2.10;1.30;;;;;;;;;;5073619;28;20497;-28
2024/01/13 03:22:32;;;;;;;2.30;1.10;;;;;;;;;;5073644;28;20054;-28
2024/01/13 03:24:59;;;;;;;1.23;1.02;;;;;;;;;;5073518;28;20060;-28
2024/01/13 03:27:25;;;;;;;1.20;0.70;;;;;;;;;;5073000;28;20056;-29
2024/01/13 03:29:53;;;;;;;2.20;1.23;;;;;;;;;;5071988;28;20051;-28
2024/01/13 03:32:21;;;;;;;0.73;0.70;;;;;;;;;;5073554;28;20056;-32
2024/01/13 03:34:48;;;;;;;2.25;1.20;;;;;;;;;;5073077;28;20052;-28
2024/01/13 03:37:15;;;;;;;1.50;1.02;;;;;;;;;;5072910;28;20048;-28
2024/01/13 03:39:43;;;;;;;1.17;0.82;;;;;;;;;;5073108;28;20048;-28
2024/01/13 03:42:10;;;;;;;1.67;0.90;;;;;;;;;;5073074;28;20649;-29
2024/01/13 03:44:37;;;;;;;0.73;0.70;;;;;;;;;;5073171;28;20045;-28
2024/01/13 03:47:04;;;;;;;1.17;0.88;;;;;;;;;;5056031;28;20110;-28
2024/01/13 03:49:32;;;;;;;0.75;0.70;;;19.30;42.90;;;;;;5069868;28;20501;-33
2024/01/13 03:51:59;;;;;;;1.25;0.85;;;;;;;;;;5073006;28;20049;-28
2024/01/13 03:54:26;;;;;;;1.90;1.05;;;;;;;;;;5072837;28;20460;-31
2024/01/13 03:56:53;;;;;;;1.10;0.80;;;;;;;;;;5072983;28;20044;-29
2024/01/13 03:59:21;;;;;;;1.08;0.63;;;;;;;;;;5072943;28;20052;-31
2024/01/13 04:01:48;;;;;;;0.50;0.50;;;;;;;;;;5072387;28;20105;-28
2024/01/13 04:04:15;;;;;;;0.98;0.65;;;;;;;;;;5064064;28;20490;-29
2024/01/13 04:06:43;;;;;;;0.63;0.50;;;19.40;43.80;;;;;;5052579;28;20049;-28
2024/01/13 04:09:10;;;;;;;1.05;0.70;;;;;;;;;;5052380;28;20555;-27
2024/01/13 04:11:37;;;;;;;0.88;0.60;;;;;;;;;;5052829;28;20290;-34
2024/01/13 04:14:04;;;;;;;0.73;0.70;;;;;;;;;;5052862;28;20049;-36
2024/01/13 04:16:32;;;;;;;0.60;0.60;;;;;;;;;;5052381;28;20525;-35
2024/01/13 04:18:59;;;;;;;1.05;0.77;;;;;;;;;;5053358;28;20044;-33
2024/01/13 04:21:26;;;;;;;0.85;0.60;;;;;;;;;;5052439;28;20049;-36
2024/01/13 04:23:54;;;;;;;0.88;0.60;;;19.50;44.20;;;;;;5052573;28;20049;-36
2024/01/13 04:26:21;;;;;;;1.98;1.10;;;;;;;;;;5052313;28;20057;-35
2024/01/13 04:28:48;;;;;;;2.10;0.88;;;;;;;;;;5052212;28;20128;-33
2024/01/13 04:31:16;;;;;;;2.25;1.30;;;;;;;;;;5071808;28;20489;-34
2024/01/13 04:33:42;;;;;;;3.20;1.10;;;19.50;74.10;;;;;;5072228;28;20052;-28
2024/01/13 04:36:10;;;;;;;1.27;0.73;;;;;;;;;;5070825;28;20497;-32
2024/01/13 04:38:37;;;;;;;0.98;0.80;;;;;;;;;;5071971;28;20044;-34
2024/01/13 04:41:05;;;;;;;2.58;1.05;;;;;;;;;;5072113;28;20098;-32
2024/01/13 04:43:33;;;;;;;0.50;0.50;;;;;;;;;;5071974;28;20535;-35
2024/01/13 04:46:00;;;;;;;0.70;0.57;;;;;;;;;;5072051;28;20076;-31
2024/01/13 04:48:27;;;;;;;1.00;0.65;;;;;;;;;;5071668;28;20048;-28
2024/01/13 04:50:54;;;;;;;1.55;0.50;;;;;;;;;;5072039;28;20090;-34
2024/01/13 04:53:21;;;;;;;0.80;0.70;;;;;;;;;;5057639;28;20091;-34
2024/01/13 04:55:48;;;;;;;0.65;0.50;;;20.10;62.20;;;;;;5051969;28;20052;-32
2024/01/13 04:58:16;;;;;;;1.05;0.60;;;19.50;44.20;;;;;;5051342;28;20045;-28
2024/01/13 05:00:43;;;;;;;0.98;0.60;;;;;;;;;;5052123;28;20052;-28
2024/01/13 05:03:11;;;;;;;0.55;0.50;;;;;;;;;;5051673;28;20493;-30
2024/01/13 05:05:38;;;;;;;0.85;0.52;;;;;;;;;;5051921;28;20107;-28
2024/01/13 05:08:05;;;;;;;0.63;0.60;;;;;;;;;;5051787;28;20041;-29
2024/01/13 05:10:32;;;;;;;0.50;0.38;;;;;;;;;;5067933;28;20056;-28
2024/01/13 05:12:59;;;;;;;0.50;0.50;;;19.40;73.80;;;;;;5071559;28;20101;-34
2024/01/13 05:15:28;;;;;;;0.60;0.60;;;;;;;;;;5071541;28;20502;-31
2024/01/13 05:17:55;;;;;;;1.15;0.75;;;;;;;;;;5071784;28;20106;-28
2024/01/13 05:20:22;;;;;;;0.77;0.60;;;;;;;;;;5071816;28;20060;-33
2024/01/13 05:22:50;;;;;;;1.50;0.80;;;;;;;;;;5071268;28;20059;-33
2024/01/13 05:25:17;;;;;;;1.08;0.70;;;;;;;;;;5071374;28;20044;-36
2024/01/13 05:27:44;;;;;;;0.88;0.57;;;;;;;;;;5071452;28;20053;-38
2024/01/13 05:30:12;;;;;;;0.50;0.50;;;19.30;43.70;;;;;;5071698;28;20048;-34
2024/01/13 05:32:40;;;;;;;0.77;0.60;;;19.40;44.00;;;;;;5071834;28;20098;-35
2024/01/13 05:35:08;;;;;;;0.57;0.45;;;19.50;42.80;;;;;;5071525;28;20123;-33
2024/01/13 05:37:35;;;;;;;0.55;0.55;;;;;;;;;;5070625;28;20048;-30
2024/01/13 05:40:04;;;;;;;0.70;0.60;;;;;;;;;;5071339;28;20048;-33
2024/01/13 05:42:31;;;;;;;0.52;0.50;;;;;;;;;;5071409;28;20052;-35
2024/01/13 05:44:58;;;;;;;0.52;0.50;;;;;;;;;;5071370;28;20135;-34
2024/01/13 05:47:26;;;;;;;0.90;0.55;;;;;;;;;;5071299;28;20044;-28
2024/01/13 05:49:55;;;;;;;0.60;0.60;;;;;;;;;;5071464;28;20072;-28
2024/01/13 05:52:22;;;;;;;0.50;0.50;;;;;;;;;;5071078;28;20113;-30
2024/01/13 05:54:48;;;;;;;0.60;0.50;;;19.40;47.70;;;;;;5065427;28;20099;-37
2024/01/13 05:57:15;;;;;;;2.30;1.05;;;;;;;;;;5050991;28;20041;-28
2024/01/13 05:59:42;;;;;;;0.63;0.50;;;;;;;;;;5051181;28;20111;-34
2024/01/13 06:02:09;;;;;;;1.00;0.63;;;19.40;48.90;;;;;;5051262;28;20555;-36
2024/01/13 06:04:36;;;;;;;3.65;1.25;;;;;;;;;;5051235;28;20057;-28
2024/01/13 06:07:05;;;;;;;1.42;0.75;;;19.50;44.20;;;;;;5051280;28;20406;-28
2024/01/13 06:09:33;;;;;;;1.30;1.00;;;;;;;;;;5050618;28;20051;-30
2024/01/13 06:12:00;;;;;;;1.60;0.82;;;;;;;;;;5059726;28;20052;-35
2024/01/13 06:14:27;;;;;;;3.70;1.45;;;;;;;;;;5074750;28;20559;-34
2024/01/13 06:16:54;;;;;;;0.68;0.57;;;;;;;;;;5074674;28;20520;-34
2024/01/13 06:19:21;;;;;;;1.23;0.80;;;;;;;;;;5074454;28;20044;-28
2024/01/13 06:21:48;;;;;;;1.80;1.02;;;;;;;;;;5074689;28;20045;-28
2024/01/13 06:24:17;;;;;;;2.25;1.20;;;;;;;;;;5074719;28;20110;-29
2024/01/13 06:26:44;;;;;;;2.08;1.05;;;;;;;;;;5074513;28;20048;-36
2024/01/13 06:29:11;;;;;;;1.67;0.77;;;;;;;;;;5066363;28;20564;-32
2024/01/13 06:31:38;;;;;;;2.13;1.13;;;;;;;;;;5054465;28;20110;-36
2024/01/13 06:34:05;;;;;;;1.63;1.10;;;;;;;;;;5054644;28;20049;-32
2024/01/13 06:36:33;;;;;;;1.23;0.93;;;;;;;;;;5059605;28;20044;-37
2024/01/13 06:39:00;;;;;;;2.03;0.77;;;;;;;;;;5074044;28;20048;-36
2024/01/13 06:41:28;;;;;;;1.45;0.80;;;19.40;44.20;;;;;;5074536;28;20045;-28
2024/01/13 06:43:55;;;;;;;1.70;0.82;;;;;;;;;;5073623;28;20493;-28
2024/01/13 06:46:22;;;;;;;1.17;0.77;;;;;;;;;;5074180;28;20059;-28
2024/01/13 06:48:49;;;;;;;0.85;0.77;;;;;;;;;;5074176;28;20048;-37
2024/01/13 06:51:16;;;;;;;1.67;0.90;;;;;;;;;;5074244;28;20052;-30
2024/01/13 06:53:43;;;;;;;0.70;0.55;;;;;;;;;;5074372;28;20056;-36
2024/01/13 06:56:11;;;;;;;0.70;0.50;;;;;;;;;;5074356;28;20049;-35
2024/01/13 06:58:39;;;;;;;1.13;0.57;;;;;;;;;;5073804;28;20118;-30
2024/01/13 07:01:06;;;;;;;0.50;0.50;;;;;;;;;;5062832;28;20445;-31
2024/01/13 07:03:34;;;;;;;0.35;0.35;;;;;;;;;;5070443;28;20052;-34
2024/01/13 07:06:01;;;;;;;0.50;0.50;;;;;;;;;;5073669;28;20101;-33
2024/01/13 07:08:28;;;;;;;0.52;0.52;;;;;;;;;;5073653;28;20718;-28
2024/01/13 07:10:56;;;;;;;1.35;0.50;;;;;;;;;;5073973;28;20052;-37
2024/01/13 07:13:23;;;;;;;0.50;0.50;;;;;;;;;;5073980;28;20455;-34
2024/01/13 07:15:53;;;;;;;0.40;0.40;;;19.40;44.10;;;;;;5073474;28;20634;-28
2024/01/13 07:18:20;;;;;;;0.55;0.40;;;;;;;;;;5071751;28;20501;-27
2024/01/13 07:20:48;;;;;;;0.50;0.50;;;;;;;;;;5073601;28;20102;-28
2024/01/13 07:23:15;;;;;;;0.25;0.25;;;;;;;;;;5073803;28;20090;-29
2024/01/13 07:25:42;;;;;;;0.80;0.50;;;;;;;;;;5073047;28;20687;-35
2024/01/13 07:28:09;;;;;;;0.70;0.60;;;;;;;;;;5073415;28;20056;-33
2024/01/13 07:30:36;;;;;;;0.68;0.50;;;;;;;;;;5073552;28;20049;-33
2024/01/13 07:33:05;;;;;;;0.40;0.40;;;;;;;;;;5071674;28;20049;-28
2024/01/13 07:35:32;;;;;;;0.43;0.40;;;;;;;;;;5054551;28;20053;-34
2024/01/13 07:38:00;;;;;;;1.02;0.60;;;;;;;;;;5066685;28;20506;-34
2024/01/13 07:40:28;;;;;;;0.40;0.40;;;;;;;;;;5058487;28;20055;-34
2024/01/13 07:42:55;;;;;;;0.40;0.40;;;;;;;;;;5065020;28;20045;-36
2024/01/13 07:45:22;;;;;;;0.80;0.47;;;;;;;;;;5061984;28;20110;-34
2024/01/13 07:47:49;;;;;;;0.45;0.45;;;;;;;;;;5054822;28;20060;-28
2024/01/13 07:50:18;;;;;;;0.45;0.40;;;19.40;44.20;;;;;;5067083;28;20076;-28
2024/01/13 07:52:45;;;;;;;0.30;0.30;;;;;;;;;;5052891;28;20053;-36
2024/01/13 07:55:12;;;;;;;1.05;0.50;;;;;;;;;;5053230;28;20045;-32
2024/01/13 07:57:39;;;;;;;0.40;0.40;;;;;;;;;;5053045;28;20057;-37
2024/01/13 08:00:07;;;;;;;1.30;0.40;;;19.40;43.90;;;;;;5052922;28;20045;-28
2024/01/13 08:02:34;;;;;;;0.65;0.50;;;;;;;;;;5053181;28;20053;-28
2024/01/13 08:05:01;;;;;;;0.43;0.43;;;;;;;;;;5052593;28;20490;-28
2024/01/13 08:07:30;;;;;;;0.73;0.47;;;;;;;;;;5052868;28;20045;-28
2024/01/13 08:09:57;;;;;;;0.60;0.57;;;;;;;;;;5052838;28;20048;-28
2024/01/13 08:12:25;;;;;;;0.30;0.30;;;;;;;;;;5052871;28;20049;-31
2024/01/13 08:14:52;;;;;;;0.85;0.50;;;;;;;;;;5057323;28;20083;-27
2024/01/13 08:17:19;;;;;;;0.55;0.40;;;;;;;;;;5071890;28;20110;-28
2024/01/13 08:19:46;;;;;;;0.50;0.50;;;;;;;;;;5072590;28;20040;-35
2024/01/13 08:22:13;;;;;;;0.40;0.40;;;;;;;;;;5072642;28;20049;-28
2024/01/13 08:24:41;;;;;;;0.35;0.35;;;19.80;44.00;;;;;;5072501;28;20487;-30
2024/01/13 08:27:08;;;;;;;1.02;0.50;;;;;;;;;;5072025;28;20057;-28
2024/01/13 08:29:36;;;;;;;0.73;0.63;;;;;;;;;;5069519;28;20045;-28
2024/01/13 08:32:03;;;;;;;0.40;0.40;;;;;;;;;;5063230;28;20123;-32
2024/01/13 08:34:30;;;;;;;0.60;0.57;;;;;;;;;;5050861;28;20498;-28
2024/01/13 08:36:57;;;;;;;0.57;0.50;;;;;;;;;;5060897;28;20052;-30
2024/01/13 08:39:24;;;;;;;0.40;0.40;;;;;;;;;;5072102;28;20060;-28
2024/01/13 08:41:52;;;;;;;0.50;0.47;;;;;;;;;;5072160;28;20048;-30
2024/01/13 08:44:20;;;;;;;0.60;0.60;;;;;;;;;;5072406;28;20056;-33
2024/01/13 08:46:47;;;;;;;0.50;0.50;;;;;;;;;;5067728;28;20111;-28
2024/01/13 08:49:14;;;;;;;0.50;0.50;;;;;;;;;;5055306;28;20118;-28
2024/01/13 08:51:41;;;;;;;0.73;0.60;;;;;;;;;;5058710;28;20072;-30
2024/01/13 08:54:08;;;;;;;1.17;0.47;;;;;;;;;;5058834;28;20044;-28
2024/01/13 08:56:36;;;;;;;0.50;0.50;;;;;;;;;;5062432;28;20475;-31
2024/01/13 08:59:04;;;;;;;0.70;0.70;;;20.20;43.40;;;;;;5059229;28;20045;-37
2024/01/13 09:01:31;;;;;;;0.95;0.60;;;;;;;;;;5061291;28;20056;-34
2024/01/13 09:03:58;;;;;;;1.13;0.60;;;;;;;;;;5060148;28;20455;-31
2024/01/13 09:06:26;;;;;;;0.75;0.70;;;;;;;;;;5060467;28;20052;-34
2024/01/13 09:08:53;;;;;;;1.30;0.90;;;;;;;;;;5061936;28;20092;-34
2024/01/13 09:11:20;;;;;;;0.70;0.70;;;;;;;;;;5062209;28;20429;-33
2024/01/13 09:13:47;;;;;;;0.90;0.85;;;;;;;;;;5061687;28;20098;-34
2024/01/13 09:16:16;;;;;;;3.08;1.10;;;;;;;;;;5057568;28;20052;-28
2024/01/13 09:18:43;;;;;;;1.80;1.00;;;;;;;;;;5050972;28;20041;-35
2024/01/13 09:21:12;;;;;;;1.23;1.13;;;;;;;;;;5050771;28;20045;-36
2024/01/13 09:23:39;;;;;;;1.23;1.10;;;;;;;;;;5051270;28;20045;-28
2024/01/13 09:26:07;;;;;;;3.67;1.65;;;;;;;;;;5051060;28;20087;-32
2024/01/13 09:28:34;;;;;;;2.72;1.60;;;;;;;;;;5051253;28;20386;-36
2024/01/13 09:31:01;;;;;;;1.95;1.40;;;20.50;72.30;;;;;;5059854;28;20103;-36
2024/01/13 09:33:29;;;;;;;1.88;1.30;;;20.50;43.00;;;;;;5061378;28;20044;-30
2024/01/13 09:35:56;;;;;;;2.92;1.50;;;;;;;;;;5067553;28;20494;-28
2024/01/13 09:38:23;;;;;;;1.42;1.25;;;;;;;;;;5060051;28;20088;-26
2024/01/13 09:40:51;;;;;;;1.63;1.50;;;;;;;;;;5053928;28;20114;-30
2024/01/13 09:43:22;;;;;;;2.17;1.60;;;20.50;41.60;;;;;;5053407;28;20086;-27
2024/01/13 09:45:50;;;;;;;2.22;1.80;;;;;;;;;;5055012;28;20057;-27
2024/01/13 09:48:18;;;;;;;1.85;1.67;;;;;;;;;;5063225;28;20072;-28
2024/01/13 09:50:48;;;;;;;3.97;2.22;;;;;;;;;;5075508;28;20505;-29
2024/01/13 09:53:17;;;;;;;3.40;2.25;;;;;;;;;;5065758;28;20057;-29
2024/01/13 09:55:44;;;;;;;2.60;2.10;;;;;;;;;;5055549;28;20045;-30
2024/01/13 09:58:11;;;;;;;2.72;2.30;;;;;;;;;;5054889;28;20057;-30
2024/01/13 10:00:38;;;;;;;2.45;2.10;;;;;;;;;;5055352;28;20049;-35
2024/01/13 10:03:05;;;;;;;2.85;2.30;;;;;;;;;;5055093;28;20104;-33
2024/01/13 10:05:33;;;;;;;4.03;2.75;;;;;;;;;;5060363;28;20551;-35
2024/01/13 10:08:01;;;;;;;3.92;2.58;;;;;;;;;;5057593;28;20052;-33
2024/01/13 10:10:29;;;;;;;3.60;2.40;;;;;;;;;;5053991;28;20110;-30
2024/01/13 10:12:56;;;;;;;4.28;2.58;;;;;;;;;;5054716;28;20111;-33
2024/01/13 10:15:23;;;;;;;4.93;3.08;;;;;;;;;;5054326;28;20057;-36
2024/01/13 10:17:50;;;;;;;3.83;2.90;;;;;;;;;;5063421;28;20094;-31
2024/01/13 10:20:17;;;;;;;4.63;3.15;;;20.00;71.90;;;;;;5064546;28;20094;-28
2024/01/13 10:22:44;;;;;;;3.58;3.10;;;;;;;;;;5063370;28;20107;-31
2024/01/13 10:25:12;;;;;;;3.85;2.80;;;20.90;41.90;;;;;;5063356;28;20055;-33
2024/01/13 10:27:39;;;;;;;6.30;4.03;;;;;;;;;;5064992;28;20119;-28
2024/01/13 10:30:08;;;;;;;4.35;3.08;;;20.90;42.10;;;;;;5062716;28;20091;-30
2024/01/13 10:32:35;;;;;;;3.60;3.22;;;;;;;;;;5064641;28;20444;-29
2024/01/13 10:35:03;;;;;;;4.10;3.30;;;;;;;;;;5065062;28;20114;-29
2024/01/13 10:37:31;;;;;;;5.43;3.65;;;21.00;42.00;;;;;;5062051;28;20045;-33
2024/01/13 10:39:58;;;;;;;4.18;3.55;;;;;;;;;;5063343;28;20109;-28
2024/01/13 10:42:27;;;;;;;5.20;3.88;;;;;;;;;;5065198;28;20052;-33
2024/01/13 10:44:56;;;;;;;7.50;4.40;;;21.00;41.30;;;;;;5065858;28;20045;-35
2024/01/13 10:47:26;;;;;;;5.90;4.22;;;;;;;;;;5062930;28;20053;-29
2024/01/13 10:49:53;;;;;;;5.65;3.90;;;;;;;;;;5065588;28;20087;-30
2024/01/13 10:52:23;;;;;;;5.07;3.95;;;;;;;;;;5063241;28;20086;-29
2024/01/13 10:54:50;;;;;;;4.80;3.88;;;;;;;;;;5064769;28;20044;-36
2024/01/13 10:57:17;;;;;;;4.70;4.00;;;;;;;;;;5063281;28;20112;-34
2024/01/13 10:59:47;;;;;;;4.80;3.90;;;;;;;;;;5065034;28;20048;-29
2024/01/13 11:02:14;;;;;;;4.90;3.90;;;;;;;;;;5063414;28;20049;-32
2024/01/13 11:04:41;;;;;;;5.15;4.10;;;21.00;41.00;;;;;;5064530;28;20075;-32
2024/01/13 11:07:08;;;;;;;5.35;4.18;;;;;;;;;;5062700;28;20067;-29
2024/01/13 11:09:35;;;;;;;6.82;4.00;;;;;;;;;;5068269;28;20048;-29
2024/01/13 11:12:03;;;;;;;8.23;4.53;;;;;;;;;;5073823;28;20049;-29
2024/01/13 11:14:32;;;;;;;7.40;4.43;;;21.20;41.60;;;;;;5074128;28;20059;-29
2024/01/13 11:17:00;;;;;;;8.18;4.22;;;21.10;42.10;;;;;;5068681;28;20074;-28
2024/01/13 11:19:27;;;;;;;11.02;5.38;;;;;;;;;;5073169;28;20186;-34
2024/01/13 11:21:54;;;;;;;7.18;4.88;;;21.20;71.70;;;;;;5073964;28;20110;-28
2024/01/13 11:24:23;;;;;;;10.23;5.20;;;;;;;;;;5073575;28;20105;-29
2024/01/13 11:26:51;;;;;;;10.70;5.10;;;;;;;;;;5073423;28;20144;-29
2024/01/13 11:29:18;;;;;;;5.75;4.55;;;;;;;;;;5073428;28;20048;-28
2024/01/13 11:31:45;;;;;;;6.65;4.55;;;;;;;;;;5072912;28;20045;-28
2024/01/13 11:34:14;;;;;;;9.13;5.13;;;;;;;;;;5073468;28;20090;-29
2024/01/13 11:36:42;;;;;;;8.38;5.18;;;;;;;;;;5072764;28;20455;-27
2024/01/13 11:39:09;;;;;;;12.00;5.50;;;;;;;;;;5073296;28;20049;-28
2024/01/13 11:41:40;;;;;;;17.90;5.40;;;;;;;;;;5073470;28;20106;-35
2024/01/13 11:44:07;;;;;;;7.25;5.93;;;;;;;;;;5072762;28;20048;-27
2024/01/13 11:46:35;;;;;;;8.82;5.68;;;;;;;;;;5066757;28;20052;-27
2024/01/13 11:49:03;;;;;;;12.18;5.82;;;;;;;;;;5064795;28;20045;-28
2024/01/13 11:51:45;;;;;;;9.43;5.78;;;;;;;;;;5063415;28;20497;-28
2024/01/13 11:54:13;;;;;;;6.85;5.18;;;20.60;42.60;;;;;;5060439;28;20052;-27
2024/01/13 11:56:40;;;;;;;9.10;5.05;;;20.70;56.40;;;;;;5063668;28;20053;-28
2024/01/13 11:59:07;;;;;;;7.70;5.22;;;;;;;;;;5090583;28;20045;-32
2024/01/13 12:01:35;;;;;;;6.55;5.32;;;;;;;;;;5082679;28;20101;-28
2024/01/13 12:04:02;;;;;;;7.80;4.88;;;;;;;;;;5070122;28;21589;-28
2024/01/13 12:06:29;;;;;;;7.90;5.03;;;;;;;;;;5074814;28;20052;-32
2024/01/13 12:08:57;;;;;;;7.43;5.20;;;;;;;;;;5074604;28;20493;-28
2024/01/13 12:11:25;;;;;;;7.35;5.03;;;;;;;;;;5080551;28;20097;-28
2024/01/13 12:13:52;;;;;;;7.63;4.97;;;;;;;;;;5072875;28;20045;-34
2024/01/13 12:16:19;;;;;;;7.68;5.20;;;;;;;;;;5088058;28;20040;-35
2024/01/13 12:18:47;;;;;;;7.47;5.05;;;;;;;;;;5088389;28;20093;-34
2024/01/13 12:21:14;;;;;;;7.15;4.88;;;19.30;68.10;;;;;;5076209;28;20068;-34
2024/01/13 12:23:41;;;;;;;6.55;4.28;;;;;;;;;;5073008;28;20067;-37
2024/01/13 12:26:08;;;;;;;6.72;5.22;;;;;;;;;;5075094;28;20099;-39
2024/01/13 12:28:36;;;;;;;5.70;4.25;;;20.00;43.20;;;;;;5085596;28;20121;-33
2024/01/13 12:31:04;;;;;;;6.95;5.13;;;;;;;;;;5066914;28;20521;-37
2024/01/13 12:33:31;;;;;;;6.95;4.60;;;19.80;73.10;;;;;;5078648;28;20134;-36
2024/01/13 12:35:59;;;;;;;5.05;4.22;;;19.70;43.00;;;;;;5080332;28;20098;-30
2024/01/13 12:38:27;;;;;;;7.30;4.65;;;19.70;43.10;;;;;;5077421;28;20082;-28
2024/01/13 12:40:54;;;;;;;6.43;4.57;;;;;;;;;;5075665;28;20490;-30
2024/01/13 12:43:21;;;;;;;7.32;4.05;;;;;;;;;;5083669;28;20055;-30
2024/01/13 12:45:50;;;;;;;5.60;4.40;;;19.70;43.30;;;;;;5076904;28;20084;-29
2024/01/13 12:48:18;;;;;;;5.20;3.85;;;;;;;;;;5080277;28;20086;-27
2024/01/13 12:50:45;;;;;;;8.93;3.97;;;;;;;;;;5073267;28;20048;-32
2024/01/13 12:53:12;;;;;;;4.85;3.95;;;;;;;;;;5086332;28;20052;-34
2024/01/13 12:55:39;;;;;;;7.65;4.05;;;;;;;;;;5075246;28;20045;-34
2024/01/13 12:58:06;;;;;;;5.03;3.78;;;;;;;;;;5077417;28;20040;-34
2024/01/13 13:00:34;;;;;;;5.72;3.92;;;;;;;;;;5083639;28;20511;-34
2024/01/13 13:03:03;;;;;;;6.20;4.13;;;19.40;42.50;;;;;;5069630;28;20041;-33
2024/01/13 13:05:30;;;;;;;7.57;4.00;;;;;;;;;;5067641;28;20053;-37
2024/01/13 13:07:57;;;;;;;6.05;4.00;;;;;;;;;;5073431;28;20094;-36
2024/01/13 13:10:24;;;;;;;5.53;3.88;;;19.50;74.10;;;;;;5080266;28;20094;-32
2024/01/13 13:12:51;;;;;;;6.25;3.53;;;;;;;;;;5082387;28;20101;-37
2024/01/13 13:15:18;;;;;;;7.80;3.97;;;19.30;61.30;;;;;;5086753;28;20044;-34
2024/01/13 13:17:45;;;;;;;6.47;3.83;;;;;;;;;;5086810;28;20104;-28
2024/01/13 13:20:13;;;;;;;9.27;3.33;;;;;;;;;;5082286;28;20115;-28
2024/01/13 13:22:41;;;;;;;4.60;3.35;;;;;;;;;;5083288;28;20056;-37
2024/01/13 13:25:08;;;;;;;6.43;3.53;;;;;;;;;;5066184;28;20383;-33
2024/01/13 13:27:35;;;;;;;6.03;3.22;;;;;;;;;;5074514;28;20102;-33
2024/01/13 13:30:04;;;;;;;5.75;3.20;;;;;;;;;;5087547;28;20436;-34
2024/01/13 13:32:31;;;;;;;6.82;2.80;;;;;;;;;;5084994;28;20084;-35
2024/01/13 13:34:58;;;;;;;3.72;2.75;;;;;;;;;;5082576;28;20105;-26
2024/01/13 13:37:27;;;;;;;17.38;8.20;;;;;;;;;;5078547;28;20052;-27
2024/01/13 13:39:54;;;;;;;7.70;2.47;;;19.80;42.30;;;;;;5079776;28;20040;-30
2024/01/13 13:42:20;;;;;;;4.95;2.50;;;19.70;46.40;;;;;;5073467;28;20044;-27
2024/01/13 13:44:47;;;;;;;6.03;2.22;;;19.50;46.50;;;;;;5080347;28;20059;-26
2024/01/13 13:47:14;;;;;;;4.50;2.10;;;19.50;46.30;;;;;;5082989;28;20086;-27
2024/01/13 13:49:41;;;;;;;6.47;2.05;;;19.60;46.00;;;;;;5080742;28;20049;-27
2024/01/13 13:52:08;;;;;;;3.50;2.00;;;19.60;46.00;;;;;;5074217;28;20099;-27
2024/01/13 13:54:36;;;;;;;5.18;2.15;;;19.00;46.00;;;;;;5079472;28;20052;-27
2024/01/13 13:57:03;;;;;;;4.88;2.20;;;19.50;45.90;;;;;;5079122;28;20131;-27
2024/01/13 13:59:29;;;;;;;3.55;2.10;;;19.50;45.90;;;;;;5079962;28;20381;-27
2024/01/13 14:01:55;;;;;;;3.45;2.00;;;20.00;46.10;;;;;;5070284;28;20094;-27
2024/01/13 14:04:23;;;;;;;2.28;1.73;;;;;;;;;;5085627;28;20582;-29
2024/01/13 14:06:49;;;;;;;2.67;1.83;;;19.70;45.90;;;;;;5065317;28;20045;-26
2024/01/13 14:09:16;;;;;;;2.10;1.67;;;19.50;45.90;;;;;;5080141;28;20628;-26
2024/01/13 14:11:44;;;;;;;2.38;1.80;;;19.90;44.10;;;;;;5080841;28;20072;-26
2024/01/13 14:14:11;;;;;;;2.58;1.60;;;19.70;46.10;;;;;;5076708;28;20044;-26
2024/01/13 14:16:38;;;;;;;1.80;1.50;;;19.60;45.50;;;;;;5080130;28;20083;-26
2024/01/13 14:19:05;;;;;;;3.33;1.77;;;19.50;41.80;;;;;;5078981;28;20045;-26